CCM51WB LFKC-LFPO
Flight info
| Callsign | CCM51WB |
|---|---|
| Flight time | 1h 30m |
| Altitude | 34000 |
| Route | MEGER Z911 OLETI DCT AOSTA DCT ORSUD DCT MOLUS DCT UNKIR DCT DJL |
| Aircraft | A320/M-SDE3FGHIRWY/LB1 |
Departure
| Time | 2026-04-22 13:54 |
|---|---|
| Airport | Calvi Sainte Catherine Airport (LFKC) |
Arrival
| Time | 2026-04-22 15:24 |
|---|---|
| Airport | Paris-Orly Airport (LFPO) |
| Time | Latitude | Longitude | Altitude | Speed | Heading |
|---|---|---|---|---|---|
| 2026-04-22 13:27 | 42.52519 | 8.79078 | 190 ft | 0 kts | 300° |
| 2026-04-22 13:36 | 42.52519 | 8.79079 | 189 ft | 0 kts | 300° |
| 2026-04-22 13:45 | 42.52515 | 8.79086 | 190 ft | 4 kts | 300° |
| 2026-04-22 13:46 | 42.52503 | 8.79118 | 206 ft | 4 kts | 292° |
| 2026-04-22 13:46 | 42.52497 | 8.79150 | 206 ft | 4 kts | 251° |
| 2026-04-22 13:46 | 42.52503 | 8.79162 | 206 ft | 1 kts | 179° |
| 2026-04-22 13:46 | 42.52506 | 8.79162 | 204 ft | 1 kts | 179° |
| 2026-04-22 13:49 | 42.52505 | 8.79162 | 205 ft | 1 kts | 179° |
| 2026-04-22 13:49 | 42.52474 | 8.79162 | 206 ft | 4 kts | 179° |
| 2026-04-22 13:50 | 42.52465 | 8.79162 | 196 ft | 2 kts | 179° |
| 2026-04-22 13:50 | 42.52436 | 8.79196 | 194 ft | 6 kts | 101° |
| 2026-04-22 13:50 | 42.52435 | 8.79238 | 193 ft | 5 kts | 90° |
| 2026-04-22 13:50 | 42.52413 | 8.79294 | 195 ft | 5 kts | 153° |
| 2026-04-22 13:51 | 42.52380 | 8.79300 | 197 ft | 8 kts | 178° |
| 2026-04-22 13:51 | 42.52305 | 8.79301 | 203 ft | 14 kts | 180° |
| 2026-04-22 13:51 | 42.52204 | 8.79301 | 218 ft | 12 kts | 179° |
| 2026-04-22 13:51 | 42.52156 | 8.79265 | 217 ft | 10 kts | 254° |
| 2026-04-22 13:52 | 42.52115 | 8.79177 | 215 ft | 11 kts | 194° |
| 2026-04-22 13:52 | 42.52067 | 8.79181 | 217 ft | 5 kts | 158° |
| 2026-04-22 13:52 | 42.52044 | 8.79240 | 219 ft | 11 kts | 89° |
| 2026-04-22 13:52 | 42.52062 | 8.79301 | 223 ft | 1 kts | 29° |
| 2026-04-22 13:53 | 42.52101 | 8.79303 | 215 ft | 9 kts | 359° |
| 2026-04-22 13:53 | 42.52283 | 8.79301 | 205 ft | 61 kts | 0° |
| 2026-04-22 13:53 | 42.52951 | 8.79303 | 158 ft | 127 kts | 0° |
| 2026-04-22 13:53 | 42.53970 | 8.79307 | 403 ft | 151 kts | 359° |
| 2026-04-22 13:54 | 42.55004 | 8.79294 | 1182 ft | 148 kts | 1° |
| 2026-04-22 13:54 | 42.56041 | 8.79300 | 2117 ft | 150 kts | 1° |
| 2026-04-22 13:54 | 42.57137 | 8.79300 | 2768 ft | 168 kts | 2° |
| 2026-04-22 13:54 | 42.58380 | 8.79300 | 3306 ft | 187 kts | 2° |
| 2026-04-22 13:55 | 42.59749 | 8.79297 | 3840 ft | 206 kts | 1° |
| 2026-04-22 13:55 | 42.61202 | 8.79453 | 4471 ft | 215 kts | 15° |
| 2026-04-22 13:55 | 42.62557 | 8.80468 | 4895 ft | 235 kts | 44° |
| 2026-04-22 13:55 | 42.63731 | 8.82174 | 5299 ft | 259 kts | 47° |
| 2026-04-22 13:56 | 42.64976 | 8.84033 | 5977 ft | 271 kts | 46° |
| 2026-04-22 13:56 | 42.66257 | 8.85954 | 6802 ft | 277 kts | 45° |
| 2026-04-22 13:56 | 42.67567 | 8.87918 | 7632 ft | 282 kts | 45° |
| 2026-04-22 13:56 | 42.68891 | 8.89902 | 8580 ft | 285 kts | 43° |
| 2026-04-22 13:57 | 42.70232 | 8.91908 | 9603 ft | 288 kts | 44° |
| 2026-04-22 13:57 | 42.71596 | 8.93948 | 10365 ft | 298 kts | 43° |
| 2026-04-22 13:57 | 42.73053 | 8.96117 | 10656 ft | 322 kts | 43° |
| 2026-04-22 13:57 | 42.74619 | 8.98453 | 10877 ft | 346 kts | 44° |
| 2026-04-22 13:58 | 42.76281 | 9.00944 | 11274 ft | 362 kts | 44° |
| 2026-04-22 13:58 | 42.77983 | 9.03507 | 11908 ft | 369 kts | 44° |
| 2026-04-22 13:58 | 42.79694 | 9.06087 | 12575 ft | 374 kts | 44° |
| 2026-04-22 13:58 | 42.81477 | 9.08775 | 13261 ft | 380 kts | 44° |
| 2026-04-22 13:59 | 42.83257 | 9.11457 | 13903 ft | 384 kts | 43° |
| 2026-04-22 13:59 | 42.85054 | 9.14166 | 14063 ft | 386 kts | 43° |
| 2026-04-22 13:59 | 42.86885 | 9.16760 | 14112 ft | 381 kts | 36° |
| 2026-04-22 13:59 | 42.89018 | 9.18790 | 14097 ft | 368 kts | 23° |
| 2026-04-22 14:00 | 42.91360 | 9.20102 | 14104 ft | 361 kts | 11° |
| 2026-04-22 14:00 | 42.93809 | 9.20710 | 14107 ft | 355 kts | 360° |
| 2026-04-22 14:00 | 42.96256 | 9.20650 | 14106 ft | 351 kts | 352° |
| 2026-04-22 14:00 | 42.98693 | 9.20440 | 14112 ft | 351 kts | 353° |
| 2026-04-22 14:01 | 43.01130 | 9.20137 | 14272 ft | 354 kts | 348° |
| 2026-04-22 14:01 | 43.03567 | 9.19605 | 14983 ft | 355 kts | 347° |
| 2026-04-22 14:01 | 43.06015 | 9.19028 | 15661 ft | 358 kts | 346° |
| 2026-04-22 14:01 | 43.08478 | 9.18428 | 16374 ft | 361 kts | 346° |
| 2026-04-22 14:02 | 43.10961 | 9.17814 | 17068 ft | 365 kts | 346° |
| 2026-04-22 14:02 | 43.13477 | 9.17196 | 17746 ft | 368 kts | 346° |
| 2026-04-22 14:02 | 43.16018 | 9.16582 | 18391 ft | 372 kts | 346° |
| 2026-04-22 14:02 | 43.18584 | 9.15966 | 18938 ft | 376 kts | 345° |
| 2026-04-22 14:03 | 43.21166 | 9.15348 | 19482 ft | 379 kts | 345° |
| 2026-04-22 14:03 | 43.23735 | 9.14733 | 20032 ft | 381 kts | 345° |
| 2026-04-22 14:03 | 43.26359 | 9.14104 | 20570 ft | 384 kts | 345° |
| 2026-04-22 14:03 | 43.28995 | 9.13472 | 21214 ft | 384 kts | 345° |
| 2026-04-22 14:04 | 43.31632 | 9.12840 | 21788 ft | 386 kts | 344° |
| 2026-04-22 14:04 | 43.34285 | 9.12200 | 22304 ft | 388 kts | 344° |
| 2026-04-22 14:04 | 43.36953 | 9.11555 | 22798 ft | 391 kts | 344° |
| 2026-04-22 14:04 | 43.39639 | 9.10906 | 23275 ft | 393 kts | 344° |
| 2026-04-22 14:05 | 43.42347 | 9.10252 | 23725 ft | 396 kts | 344° |
| 2026-04-22 14:05 | 43.45071 | 9.09596 | 24093 ft | 398 kts | 344° |
| 2026-04-22 14:05 | 43.50572 | 9.08270 | 24787 ft | 405 kts | 344° |
| 2026-04-22 14:06 | 43.53356 | 9.07594 | 25107 ft | 408 kts | 344° |
| 2026-04-22 14:06 | 43.56160 | 9.06909 | 25449 ft | 410 kts | 344° |
| 2026-04-22 14:06 | 43.58944 | 9.06230 | 25794 ft | 412 kts | 344° |
| 2026-04-22 14:06 | 43.61776 | 9.05543 | 26132 ft | 414 kts | 344° |
| 2026-04-22 14:07 | 43.64625 | 9.04854 | 26464 ft | 416 kts | 344° |
| 2026-04-22 14:07 | 43.67482 | 9.04159 | 26819 ft | 418 kts | 344° |
| 2026-04-22 14:07 | 43.70345 | 9.03462 | 27158 ft | 419 kts | 343° |
| 2026-04-22 14:07 | 43.73220 | 9.02759 | 27474 ft | 420 kts | 343° |
| 2026-04-22 14:08 | 43.76112 | 9.02054 | 27773 ft | 422 kts | 343° |
| 2026-04-22 14:08 | 43.78996 | 9.01284 | 28067 ft | 421 kts | 340° |
| 2026-04-22 14:08 | 43.81761 | 9.00014 | 28336 ft | 417 kts | 332° |
| 2026-04-22 14:08 | 43.84330 | 8.98202 | 28605 ft | 414 kts | 325° |
| 2026-04-22 14:09 | 43.86824 | 8.96185 | 28848 ft | 415 kts | 325° |
| 2026-04-22 14:09 | 43.89315 | 8.94167 | 29152 ft | 415 kts | 325° |
| 2026-04-22 14:09 | 43.91805 | 8.92152 | 29528 ft | 413 kts | 324° |
| 2026-04-22 14:09 | 43.94282 | 8.90149 | 29883 ft | 411 kts | 324° |
| 2026-04-22 14:10 | 43.96753 | 8.88156 | 30209 ft | 410 kts | 324° |
| 2026-04-22 14:10 | 43.99218 | 8.86167 | 30497 ft | 409 kts | 324° |
| 2026-04-22 14:10 | 44.01676 | 8.84178 | 30795 ft | 408 kts | 324° |
| 2026-04-22 14:10 | 44.04125 | 8.82192 | 31102 ft | 407 kts | 324° |
| 2026-04-22 14:11 | 44.06559 | 8.80219 | 31408 ft | 405 kts | 325° |
| 2026-04-22 14:11 | 44.08994 | 8.78247 | 31737 ft | 403 kts | 325° |
| 2026-04-22 14:11 | 44.11376 | 8.76315 | 32096 ft | 400 kts | 325° |
| 2026-04-22 14:11 | 44.13808 | 8.74336 | 32440 ft | 398 kts | 325° |
| 2026-04-22 14:12 | 44.16193 | 8.72394 | 32760 ft | 396 kts | 325° |
| 2026-04-22 14:12 | 44.18540 | 8.70479 | 33017 ft | 396 kts | 325° |
| 2026-04-22 14:12 | 44.20916 | 8.68533 | 33276 ft | 396 kts | 325° |
| 2026-04-22 14:12 | 44.23293 | 8.66586 | 33570 ft | 396 kts | 325° |
| 2026-04-22 14:13 | 44.25667 | 8.64638 | 33872 ft | 394 kts | 325° |
| 2026-04-22 14:13 | 44.28031 | 8.62698 | 34083 ft | 394 kts | 325° |
| 2026-04-22 14:13 | 44.30392 | 8.60763 | 34125 ft | 393 kts | 325° |
| 2026-04-22 14:14 | 44.35090 | 8.56914 | 34115 ft | 390 kts | 325° |
| 2026-04-22 14:14 | 44.39769 | 8.53073 | 34118 ft | 390 kts | 325° |
| 2026-04-22 14:15 | 44.44447 | 8.49221 | 34127 ft | 390 kts | 325° |
| 2026-04-22 14:15 | 44.49119 | 8.45358 | 34132 ft | 390 kts | 325° |
| 2026-04-22 14:16 | 44.53784 | 8.41491 | 34141 ft | 389 kts | 325° |
| 2026-04-22 14:16 | 44.58448 | 8.37629 | 34142 ft | 390 kts | 325° |
| 2026-04-22 14:17 | 44.63095 | 8.33776 | 34119 ft | 390 kts | 324° |
| 2026-04-22 14:17 | 44.67781 | 8.29870 | 34119 ft | 393 kts | 324° |
| 2026-04-22 14:18 | 44.72489 | 8.25939 | 34149 ft | 393 kts | 325° |
| 2026-04-22 14:18 | 44.76428 | 8.22656 | 34153 ft | 392 kts | 325° |
| 2026-04-22 14:19 | 44.81095 | 8.18762 | 34159 ft | 392 kts | 325° |
| 2026-04-22 14:19 | 44.85785 | 8.14839 | 34156 ft | 391 kts | 325° |
| 2026-04-22 14:20 | 44.92809 | 8.08942 | 34184 ft | 391 kts | 325° |
| 2026-04-22 14:20 | 44.97476 | 8.05013 | 34184 ft | 390 kts | 325° |
| 2026-04-22 14:21 | 45.04446 | 7.99126 | 34140 ft | 391 kts | 325° |
| 2026-04-22 14:22 | 45.11479 | 7.93174 | 34181 ft | 393 kts | 325° |
| 2026-04-22 14:23 | 45.18491 | 7.87228 | 34194 ft | 391 kts | 325° |
| 2026-04-22 14:23 | 45.23155 | 7.83261 | 34197 ft | 390 kts | 325° |
| 2026-04-22 14:24 | 45.27809 | 7.79299 | 34195 ft | 390 kts | 325° |
| 2026-04-22 14:24 | 45.32455 | 7.75323 | 34220 ft | 389 kts | 325° |
| 2026-04-22 14:25 | 45.37086 | 7.71359 | 34176 ft | 388 kts | 326° |
| 2026-04-22 14:25 | 45.41713 | 7.67398 | 34175 ft | 388 kts | 326° |
| 2026-04-22 14:26 | 45.46300 | 7.63453 | 34168 ft | 388 kts | 326° |
| 2026-04-22 14:26 | 45.50923 | 7.59469 | 34167 ft | 388 kts | 326° |
| 2026-04-22 14:27 | 45.55537 | 7.55485 | 34185 ft | 387 kts | 326° |
| 2026-04-22 14:27 | 45.60147 | 7.51513 | 34186 ft | 386 kts | 326° |
| 2026-04-22 14:28 | 45.64743 | 7.47552 | 34176 ft | 385 kts | 326° |
| 2026-04-22 14:28 | 45.69329 | 7.43590 | 34168 ft | 384 kts | 326° |
| 2026-04-22 14:29 | 45.73889 | 7.39623 | 34132 ft | 383 kts | 326° |
| 2026-04-22 14:29 | 45.78428 | 7.35651 | 34118 ft | 382 kts | 326° |
| 2026-04-22 14:30 | 45.82857 | 7.31529 | 34100 ft | 381 kts | 323° |
| 2026-04-22 14:30 | 45.87148 | 7.27095 | 34098 ft | 381 kts | 322° |
| 2026-04-22 14:31 | 45.91439 | 7.22609 | 34099 ft | 381 kts | 322° |
| 2026-04-22 14:31 | 45.95749 | 7.18177 | 34119 ft | 381 kts | 323° |
| 2026-04-22 14:32 | 46.00068 | 7.13776 | 34065 ft | 381 kts | 323° |
| 2026-04-22 14:32 | 46.04387 | 7.09368 | 34069 ft | 380 kts | 323° |
| 2026-04-22 14:33 | 46.08694 | 7.04946 | 34070 ft | 379 kts | 323° |
| 2026-04-22 14:33 | 46.13002 | 7.00519 | 34064 ft | 380 kts | 323° |
| 2026-04-22 14:34 | 46.17309 | 6.96079 | 34109 ft | 381 kts | 323° |
| 2026-04-22 14:34 | 46.21589 | 6.91648 | 34094 ft | 381 kts | 323° |
| 2026-04-22 14:35 | 46.25900 | 6.87183 | 34093 ft | 381 kts | 323° |
| 2026-04-22 14:35 | 46.30208 | 6.82722 | 34101 ft | 381 kts | 323° |
| 2026-04-22 14:36 | 46.34517 | 6.78255 | 34059 ft | 381 kts | 322° |
| 2026-04-22 14:36 | 46.38823 | 6.73773 | 34107 ft | 382 kts | 322° |
| 2026-04-22 14:37 | 46.43072 | 6.69175 | 34090 ft | 380 kts | 317° |
| 2026-04-22 14:37 | 46.46307 | 6.63142 | 34097 ft | 382 kts | 302° |
| 2026-04-22 14:38 | 46.48947 | 6.56433 | 34108 ft | 383 kts | 302° |
| 2026-04-22 14:38 | 46.51599 | 6.49726 | 34113 ft | 383 kts | 302° |
| 2026-04-22 14:39 | 46.54243 | 6.43012 | 34089 ft | 383 kts | 302° |
| 2026-04-22 14:39 | 46.56883 | 6.36300 | 34101 ft | 383 kts | 302° |
| 2026-04-22 14:40 | 46.60826 | 6.26248 | 34108 ft | 383 kts | 302° |
| 2026-04-22 14:40 | 46.63455 | 6.19518 | 34112 ft | 383 kts | 302° |
| 2026-04-22 14:41 | 46.66082 | 6.12764 | 34109 ft | 383 kts | 302° |
| 2026-04-22 14:41 | 46.68712 | 6.06001 | 34093 ft | 383 kts | 301° |
| 2026-04-22 14:42 | 46.71339 | 5.99243 | 34097 ft | 383 kts | 301° |
| 2026-04-22 14:42 | 46.73957 | 5.92470 | 34104 ft | 383 kts | 301° |
| 2026-04-22 14:43 | 46.76563 | 5.85710 | 34100 ft | 383 kts | 301° |
| 2026-04-22 14:43 | 46.79152 | 5.78970 | 34102 ft | 383 kts | 301° |
| 2026-04-22 14:44 | 46.81951 | 5.72395 | 34100 ft | 381 kts | 310° |
| 2026-04-22 14:44 | 46.85734 | 5.66990 | 34083 ft | 381 kts | 316° |
| 2026-04-22 14:45 | 46.89603 | 5.61707 | 34087 ft | 381 kts | 316° |
| 2026-04-22 14:45 | 46.93454 | 5.56411 | 34092 ft | 381 kts | 316° |
| 2026-04-22 14:46 | 46.97314 | 5.51080 | 34094 ft | 381 kts | 316° |
| 2026-04-22 14:46 | 47.01172 | 5.45752 | 34095 ft | 381 kts | 316° |
| 2026-04-22 14:47 | 47.05034 | 5.40407 | 34096 ft | 381 kts | 316° |
| 2026-04-22 14:47 | 47.08901 | 5.35065 | 34116 ft | 382 kts | 316° |
| 2026-04-22 14:48 | 47.12742 | 5.29740 | 34105 ft | 382 kts | 316° |
| 2026-04-22 14:48 | 47.16608 | 5.24361 | 34116 ft | 383 kts | 316° |
| 2026-04-22 14:49 | 47.20477 | 5.18975 | 34125 ft | 383 kts | 316° |
| 2026-04-22 14:49 | 47.24341 | 5.13576 | 34129 ft | 383 kts | 316° |
| 2026-04-22 14:50 | 47.28194 | 5.08145 | 34153 ft | 383 kts | 315° |
| 2026-04-22 14:50 | 47.31913 | 5.02498 | 33779 ft | 384 kts | 313° |
| 2026-04-22 14:51 | 47.33740 | 4.99631 | 33517 ft | 384 kts | 313° |
| 2026-04-22 14:51 | 47.35569 | 4.96755 | 33190 ft | 386 kts | 313° |
| 2026-04-22 14:51 | 47.37414 | 4.93865 | 32923 ft | 387 kts | 313° |
| 2026-04-22 14:51 | 47.39268 | 4.90978 | 32636 ft | 388 kts | 313° |
| 2026-04-22 14:52 | 47.41137 | 4.88082 | 31706 ft | 391 kts | 313° |
| 2026-04-22 14:52 | 47.43011 | 4.85186 | 30835 ft | 390 kts | 312° |
| 2026-04-22 14:52 | 47.44894 | 4.82273 | 29770 ft | 394 kts | 312° |
| 2026-04-22 14:52 | 47.46788 | 4.79335 | 28733 ft | 395 kts | 313° |
| 2026-04-22 14:53 | 47.48683 | 4.76390 | 27708 ft | 395 kts | 313° |
| 2026-04-22 14:53 | 47.50582 | 4.73440 | 26732 ft | 399 kts | 313° |
| 2026-04-22 14:53 | 47.52514 | 4.70437 | 26404 ft | 406 kts | 313° |
| 2026-04-22 14:53 | 47.54468 | 4.67395 | 26158 ft | 408 kts | 313° |
| 2026-04-22 14:54 | 47.56423 | 4.64353 | 25910 ft | 408 kts | 313° |
| 2026-04-22 14:54 | 47.58373 | 4.61318 | 25663 ft | 407 kts | 313° |
| 2026-04-22 14:54 | 47.60321 | 4.58280 | 25390 ft | 407 kts | 314° |
| 2026-04-22 14:54 | 47.62270 | 4.55235 | 25147 ft | 407 kts | 314° |
| 2026-04-22 14:55 | 47.64220 | 4.52180 | 24912 ft | 406 kts | 314° |
| 2026-04-22 14:55 | 47.66155 | 4.49142 | 24760 ft | 405 kts | 314° |
| 2026-04-22 14:55 | 47.68090 | 4.46102 | 24518 ft | 405 kts | 314° |
| 2026-04-22 14:55 | 47.70021 | 4.43069 | 24233 ft | 403 kts | 314° |
| 2026-04-22 14:56 | 47.71942 | 4.40048 | 23981 ft | 402 kts | 314° |
| 2026-04-22 14:56 | 47.73855 | 4.37035 | 23696 ft | 400 kts | 314° |
| 2026-04-22 14:56 | 47.75738 | 4.34062 | 23401 ft | 399 kts | 314° |
| 2026-04-22 14:56 | 47.77637 | 4.31065 | 23128 ft | 399 kts | 314° |
| 2026-04-22 14:57 | 47.79537 | 4.28067 | 22855 ft | 398 kts | 314° |
| 2026-04-22 14:57 | 47.81435 | 4.25068 | 22587 ft | 398 kts | 314° |
| 2026-04-22 14:57 | 47.83328 | 4.22072 | 22318 ft | 398 kts | 314° |
| 2026-04-22 14:57 | 47.85226 | 4.19061 | 22038 ft | 399 kts | 314° |
| 2026-04-22 14:58 | 47.86991 | 4.15874 | 21775 ft | 400 kts | 306° |
| 2026-04-22 14:58 | 47.88333 | 4.12229 | 21504 ft | 403 kts | 295° |
| 2026-04-22 14:58 | 47.89197 | 4.08255 | 21226 ft | 406 kts | 286° |
| 2026-04-22 14:58 | 47.89795 | 4.04133 | 20944 ft | 406 kts | 285° |
| 2026-04-22 14:59 | 47.90390 | 4.00031 | 20674 ft | 405 kts | 285° |
| 2026-04-22 14:59 | 47.90988 | 3.95922 | 20398 ft | 404 kts | 285° |
| 2026-04-22 14:59 | 47.91582 | 3.91834 | 20123 ft | 404 kts | 285° |
| 2026-04-22 14:59 | 47.92177 | 3.87748 | 19839 ft | 403 kts | 285° |
| 2026-04-22 15:00 | 47.92772 | 3.83659 | 19562 ft | 403 kts | 285° |
| 2026-04-22 15:00 | 47.93363 | 3.79570 | 19278 ft | 402 kts | 284° |
| 2026-04-22 15:00 | 47.93949 | 3.75490 | 19018 ft | 402 kts | 284° |
| 2026-04-22 15:00 | 47.94528 | 3.71423 | 18753 ft | 395 kts | 284° |
| 2026-04-22 15:01 | 47.95082 | 3.67511 | 18629 ft | 379 kts | 284° |
| 2026-04-22 15:01 | 47.95610 | 3.63788 | 18509 ft | 364 kts | 284° |
| 2026-04-22 15:01 | 47.96169 | 3.60165 | 18255 ft | 354 kts | 289° |
| 2026-04-22 15:01 | 47.97133 | 3.56804 | 18139 ft | 351 kts | 301° |
| 2026-04-22 15:02 | 47.98533 | 3.53830 | 17569 ft | 351 kts | 313° |
| 2026-04-22 15:02 | 48.00238 | 3.51230 | 17042 ft | 349 kts | 316° |
| 2026-04-22 15:02 | 48.01940 | 3.48659 | 16529 ft | 347 kts | 316° |
| 2026-04-22 15:02 | 48.03627 | 3.46095 | 16015 ft | 346 kts | 317° |
| 2026-04-22 15:03 | 48.05312 | 3.43521 | 15509 ft | 346 kts | 316° |
| 2026-04-22 15:03 | 48.06996 | 3.40944 | 14989 ft | 346 kts | 316° |
| 2026-04-22 15:03 | 48.08678 | 3.38368 | 14480 ft | 346 kts | 317° |
| 2026-04-22 15:03 | 48.10357 | 3.35794 | 13969 ft | 346 kts | 316° |
| 2026-04-22 15:04 | 48.12044 | 3.33204 | 13416 ft | 346 kts | 317° |
| 2026-04-22 15:04 | 48.13152 | 3.31497 | 13075 ft | 345 kts | 317° |
| 2026-04-22 15:04 | 48.14824 | 3.28919 | 12576 ft | 344 kts | 316° |
| 2026-04-22 15:04 | 48.16464 | 3.26391 | 12415 ft | 332 kts | 317° |
| 2026-04-22 15:05 | 48.18043 | 3.23951 | 12286 ft | 321 kts | 317° |
| 2026-04-22 15:05 | 48.19578 | 3.21577 | 12041 ft | 314 kts | 317° |
| 2026-04-22 15:05 | 48.21091 | 3.19248 | 11778 ft | 309 kts | 316° |
| 2026-04-22 15:05 | 48.22588 | 3.16954 | 11542 ft | 306 kts | 316° |
| 2026-04-22 15:06 | 48.24072 | 3.14681 | 11326 ft | 305 kts | 316° |
| 2026-04-22 15:06 | 48.25560 | 3.12393 | 11026 ft | 309 kts | 316° |
| 2026-04-22 15:06 | 48.27061 | 3.10079 | 10716 ft | 309 kts | 317° |
| 2026-04-22 15:06 | 48.28555 | 3.07776 | 10393 ft | 307 kts | 316° |
| 2026-04-22 15:07 | 48.30039 | 3.05478 | 10099 ft | 304 kts | 317° |
| 2026-04-22 15:07 | 48.31517 | 3.03185 | 9973 ft | 308 kts | 317° |
| 2026-04-22 15:07 | 48.33013 | 3.00870 | 9818 ft | 309 kts | 317° |
| 2026-04-22 15:07 | 48.34510 | 2.98552 | 9669 ft | 307 kts | 317° |
| 2026-04-22 15:08 | 48.35998 | 2.96246 | 9522 ft | 307 kts | 316° |
| 2026-04-22 15:08 | 48.37476 | 2.93955 | 9367 ft | 303 kts | 317° |
| 2026-04-22 15:08 | 48.38949 | 2.91667 | 9216 ft | 305 kts | 317° |
| 2026-04-22 15:08 | 48.40422 | 2.89377 | 9061 ft | 303 kts | 316° |
| 2026-04-22 15:09 | 48.41880 | 2.87104 | 8910 ft | 302 kts | 317° |
| 2026-04-22 15:09 | 48.43341 | 2.84828 | 8769 ft | 301 kts | 316° |
| 2026-04-22 15:09 | 48.44629 | 2.82355 | 8623 ft | 301 kts | 301° |
| 2026-04-22 15:09 | 48.45443 | 2.79458 | 8477 ft | 301 kts | 285° |
| 2026-04-22 15:10 | 48.45735 | 2.76341 | 8321 ft | 302 kts | 271° |
| 2026-04-22 15:10 | 48.45817 | 2.73165 | 8171 ft | 302 kts | 271° |
| 2026-04-22 15:10 | 48.45903 | 2.69982 | 8026 ft | 305 kts | 272° |
| 2026-04-22 15:10 | 48.45994 | 2.66811 | 7862 ft | 304 kts | 272° |
| 2026-04-22 15:11 | 48.46089 | 2.63625 | 7720 ft | 305 kts | 272° |
| 2026-04-22 15:11 | 48.46217 | 2.60419 | 7574 ft | 306 kts | 274° |
| 2026-04-22 15:11 | 48.46372 | 2.57261 | 7412 ft | 300 kts | 273° |
| 2026-04-22 15:11 | 48.46538 | 2.54109 | 7283 ft | 303 kts | 274° |
| 2026-04-22 15:12 | 48.46704 | 2.50986 | 7140 ft | 300 kts | 274° |
| 2026-04-22 15:12 | 48.46865 | 2.47855 | 7002 ft | 299 kts | 273° |
| 2026-04-22 15:12 | 48.47022 | 2.44725 | 6857 ft | 300 kts | 273° |
| 2026-04-22 15:12 | 48.47176 | 2.41567 | 6723 ft | 301 kts | 273° |
| 2026-04-22 15:13 | 48.47324 | 2.38427 | 6565 ft | 302 kts | 273° |
| 2026-04-22 15:13 | 48.47469 | 2.35279 | 6436 ft | 299 kts | 273° |
| 2026-04-22 15:13 | 48.47615 | 2.32146 | 6298 ft | 300 kts | 273° |
| 2026-04-22 15:13 | 48.47760 | 2.29028 | 6167 ft | 298 kts | 273° |
| 2026-04-22 15:14 | 48.47907 | 2.25907 | 5992 ft | 299 kts | 273° |
| 2026-04-22 15:14 | 48.48050 | 2.22795 | 5705 ft | 294 kts | 273° |
| 2026-04-22 15:14 | 48.48188 | 2.19729 | 5571 ft | 293 kts | 273° |
| 2026-04-22 15:14 | 48.48323 | 2.16721 | 5443 ft | 281 kts | 273° |
| 2026-04-22 15:15 | 48.48454 | 2.13843 | 5320 ft | 269 kts | 273° |
| 2026-04-22 15:15 | 48.48580 | 2.11080 | 5219 ft | 260 kts | 272° |
| 2026-04-22 15:15 | 48.48703 | 2.08328 | 5162 ft | 265 kts | 272° |
| 2026-04-22 15:15 | 48.48825 | 2.05561 | 5091 ft | 264 kts | 272° |
| 2026-04-22 15:16 | 48.49093 | 2.02842 | 5052 ft | 260 kts | 290° |
| 2026-04-22 15:16 | 48.49956 | 2.00571 | 5019 ft | 243 kts | 316° |
| 2026-04-22 15:16 | 48.51254 | 1.99079 | 4991 ft | 232 kts | 340° |
| 2026-04-22 15:16 | 48.52767 | 1.98458 | 4856 ft | 220 kts | 4° |
| 2026-04-22 15:17 | 48.54260 | 1.98510 | 4697 ft | 218 kts | 8° |
| 2026-04-22 15:17 | 48.55764 | 1.98598 | 4606 ft | 216 kts | 8° |
| 2026-04-22 15:17 | 48.57263 | 1.98685 | 4563 ft | 216 kts | 11° |
| 2026-04-22 15:17 | 48.58756 | 1.98797 | 4507 ft | 212 kts | 16° |
| 2026-04-22 15:18 | 48.60091 | 1.99525 | 4400 ft | 200 kts | 40° |
| 2026-04-22 15:18 | 48.61041 | 2.00961 | 4318 ft | 191 kts | 63° |
| 2026-04-22 15:18 | 48.61680 | 2.02711 | 4225 ft | 189 kts | 66° |
| 2026-04-22 15:18 | 48.62284 | 2.04424 | 4121 ft | 180 kts | 65° |
| 2026-04-22 15:19 | 48.62859 | 2.06036 | 4055 ft | 171 kts | 66° |
| 2026-04-22 15:19 | 48.63416 | 2.07597 | 3870 ft | 167 kts | 65° |
| 2026-04-22 15:19 | 48.63968 | 2.09145 | 3668 ft | 166 kts | 65° |
| 2026-04-22 15:19 | 48.64512 | 2.10666 | 3459 ft | 164 kts | 65° |
| 2026-04-22 15:20 | 48.65055 | 2.12185 | 3236 ft | 163 kts | 64° |
| 2026-04-22 15:20 | 48.65601 | 2.13716 | 3017 ft | 166 kts | 64° |
| 2026-04-22 15:20 | 48.66145 | 2.15241 | 2790 ft | 164 kts | 64° |
| 2026-04-22 15:20 | 48.66679 | 2.16736 | 2558 ft | 158 kts | 64° |
| 2026-04-22 15:21 | 48.67196 | 2.18185 | 2357 ft | 156 kts | 64° |
| 2026-04-22 15:21 | 48.67714 | 2.19639 | 2151 ft | 156 kts | 65° |
| 2026-04-22 15:21 | 48.68222 | 2.21064 | 1932 ft | 149 kts | 64° |
| 2026-04-22 15:21 | 48.68691 | 2.22380 | 1747 ft | 137 kts | 66° |
| 2026-04-22 15:22 | 48.69130 | 2.23614 | 1556 ft | 129 kts | 64° |
| 2026-04-22 15:22 | 48.69543 | 2.24778 | 1401 ft | 126 kts | 65° |
| 2026-04-22 15:22 | 48.69956 | 2.25942 | 1229 ft | 128 kts | 65° |
| 2026-04-22 15:22 | 48.70365 | 2.27111 | 1039 ft | 127 kts | 65° |
| 2026-04-22 15:23 | 48.70785 | 2.28270 | 886 ft | 124 kts | 67° |
| 2026-04-22 15:23 | 48.71200 | 2.29428 | 716 ft | 126 kts | 66° |
| 2026-04-22 15:23 | 48.71604 | 2.30555 | 538 ft | 120 kts | 64° |
| 2026-04-22 15:23 | 48.71985 | 2.31654 | 392 ft | 114 kts | 65° |
| 2026-04-22 15:24 | 48.72330 | 2.32645 | 304 ft | 91 kts | 55° |
| 2026-04-22 15:24 | 48.72548 | 2.33258 | 296 ft | 41 kts | 61° |
| 2026-04-22 15:24 | 48.72663 | 2.33584 | 300 ft | 30 kts | 62° |
| 2026-04-22 15:24 | 48.72753 | 2.33862 | 300 ft | 30 kts | 74° |
| 2026-04-22 15:25 | 48.72786 | 2.34181 | 297 ft | 31 kts | 83° |
| 2026-04-22 15:25 | 48.72797 | 2.34316 | 296 ft | 5 kts | 83° |
| 2026-04-22 15:25 | 48.72806 | 2.34410 | 300 ft | 3 kts | 82° |
| 2026-04-22 15:25 | 48.72817 | 2.34528 | 298 ft | 18 kts | 81° |
| 2026-04-22 15:26 | 48.72838 | 2.34752 | 298 ft | 23 kts | 82° |
| 2026-04-22 15:26 | 48.72860 | 2.34984 | 295 ft | 22 kts | 82° |
| 2026-04-22 15:26 | 48.72883 | 2.35214 | 297 ft | 22 kts | 81° |
| 2026-04-22 15:26 | 48.72891 | 2.35299 | 295 ft | 3 kts | 83° |
| 2026-04-22 15:27 | 48.72894 | 2.35380 | 295 ft | 12 kts | 100° |
| 2026-04-22 15:27 | 48.72793 | 2.35451 | 297 ft | 22 kts | 167° |
| 2026-04-22 15:27 | 48.72766 | 2.35606 | 300 ft | 17 kts | 65° |
| 2026-04-22 15:27 | 48.72817 | 2.35683 | 296 ft | 0 kts | 39° |
| 2026-04-22 15:28 | 48.72825 | 2.35692 | 295 ft | 0 kts | 40° |
| 2026-04-22 15:28 | 48.72825 | 2.35693 | 295 ft | 0 kts | 40° |